createdAt,value
2018-06-12T00:06:51.782Z,53.9
2018-06-12T00:17:41.840Z,54.1
2018-06-12T00:28:11.556Z,53.5
2018-06-12T00:39:12.701Z,53.9
2018-06-12T00:49:33.815Z,54.8
2018-06-12T00:59:55.559Z,54.3
2018-06-12T01:10:10.900Z,53.6
2018-06-12T01:20:57.902Z,53.8
2018-06-12T01:31:12.852Z,53.7
2018-06-12T01:41:36.429Z,53.9
2018-06-12T01:52:25.289Z,53.9
2018-06-12T02:02:53.106Z,53.5
2018-06-12T02:13:09.908Z,53.7
2018-06-12T02:23:28.848Z,53.8
2018-06-12T02:33:48.506Z,54.1
2018-06-12T02:44:39.798Z,53.5
2018-06-12T02:55:32.269Z,52.8
2018-06-12T03:05:55.140Z,53.6
2018-06-12T03:16:09.753Z,53.9
2018-06-12T03:26:24.500Z,54.0
2018-06-12T03:36:45.825Z,53.1
2018-06-12T03:47:33.401Z,53.0
2018-06-12T03:57:53.885Z,52.7
2018-06-12T04:08:10.690Z,52.6
2018-06-12T04:19:03.747Z,53.6
2018-06-12T04:29:18.324Z,53.4
2018-06-12T04:50:25.444Z,53.4
2018-06-12T05:00:43.220Z,53.9
2018-06-12T05:11:07.686Z,53.8
2018-06-12T05:21:28.152Z,52.8
2018-06-12T05:31:49.843Z,53.3
2018-06-12T05:42:09.691Z,53.9
2018-06-12T05:52:29.664Z,53.6
2018-06-12T06:02:47.499Z,53.3
2018-06-12T06:13:05.390Z,53.0
2018-06-12T06:23:27.118Z,52.8
2018-06-12T06:34:18.442Z,53.2
2018-06-12T06:44:33.337Z,53.6
2018-06-12T06:55:19.211Z,53.8
2018-06-12T07:05:32.769Z,53.8
2018-06-12T07:15:44.563Z,53.7
2018-06-12T07:26:09.802Z,53.9
2018-06-12T07:37:11.589Z,53.6
2018-06-12T07:47:28.129Z,53.6
2018-06-12T07:57:53.722Z,53.7
2018-06-12T08:08:44.509Z,53.8
2018-06-12T08:19:05.930Z,53.8
2018-06-12T08:29:27.443Z,54.1
2018-06-12T08:39:41.183Z,53.7
2018-06-12T08:50:06.576Z,54.0
2018-06-12T09:00:18.894Z,52.1
2018-06-12T09:11:41.292Z,50.7
2018-06-12T09:21:58.572Z,49.6
2018-06-12T09:32:12.892Z,49.4
2018-06-12T09:42:30.109Z,48.8
2018-06-12T10:02:59.284Z,48.4
2018-06-12T10:24:01.803Z,46.9
2018-06-12T10:34:20.636Z,46.8
2018-06-12T10:44:34.595Z,46.6
2018-06-12T10:54:49.731Z,46.5
2018-06-12T11:05:45.513Z,46.9
2018-06-12T11:16:01.150Z,46.9
2018-06-12T11:26:56.264Z,47.0
2018-06-12T11:47:30.209Z,46.9
2018-06-12T11:57:45.342Z,46.8
2018-06-12T12:08:00.219Z,46.8
2018-06-12T12:18:15.582Z,47.0
2018-06-12T12:29:06.704Z,46.6
2018-06-12T12:39:24.218Z,46.3
2018-06-12T12:49:43.430Z,45.9
2018-06-12T13:00:31.331Z,45.5
2018-06-12T13:10:45.202Z,45.2
2018-06-12T13:20:59.390Z,44.8
2018-06-12T13:31:20.007Z,44.6
2018-06-12T13:41:46.003Z,45.1
2018-06-12T13:52:03.511Z,45.1
2018-06-12T14:02:51.627Z,45.1
2018-06-12T14:13:40.727Z,45.3
2018-06-12T14:24:29.394Z,45.3
2018-06-12T14:35:22.971Z,45.3
2018-06-12T14:45:40.972Z,45.5
2018-06-12T14:56:27.015Z,45.7
2018-06-12T15:17:11.829Z,46.1
2018-06-12T15:27:30.056Z,46.1
2018-06-12T15:37:48.873Z,46.4
2018-06-12T15:48:03.379Z,46.1
2018-06-12T15:58:19.651Z,46.0
2018-06-12T16:08:46.100Z,46.2
2018-06-12T16:20:19.647Z,47.1
2018-06-12T16:40:50.722Z,46.7
2018-06-12T17:01:21.894Z,46.4
2018-06-12T17:11:50.543Z,47.2
2018-06-12T17:22:39.745Z,47.5
2018-06-12T17:32:56.048Z,47.9
2018-06-12T17:43:19.021Z,48.2
2018-06-12T17:53:33.845Z,48.6
2018-06-12T18:03:49.263Z,48.6
2018-06-12T18:14:04.029Z,48.9
2018-06-12T18:36:40.562Z,51.9
2018-06-12T18:52:51.090Z,51.4
2018-06-12T19:04:40.327Z,51.7
2018-06-12T19:16:10.510Z,51.4
2018-06-12T19:31:55.320Z,51.9
2018-06-12T19:43:18.456Z,51.5
2018-06-12T19:56:22.299Z,52.0
2018-06-12T20:20:22.221Z,51.8
2018-06-12T20:30:40.999Z,52.0
2018-06-12T20:40:55.688Z,52.1
2018-06-12T20:51:14.333Z,52.0
2018-06-12T21:01:32.755Z,52.3
2018-06-12T21:11:47.617Z,52.1
2018-06-12T21:22:01.775Z,52.5
2018-06-12T21:32:15.780Z,52.5
2018-06-12T21:43:02.507Z,52.8
2018-06-12T21:53:16.425Z,52.9
2018-06-12T22:04:03.016Z,53.9
2018-06-12T22:14:48.802Z,54.5
2018-06-12T22:25:03.279Z,53.7
2018-06-12T22:35:17.802Z,54.2
2018-06-12T22:45:32.791Z,54.3
2018-06-12T22:56:18.128Z,55.3
2018-06-12T23:06:39.038Z,55.2
2018-06-12T23:16:53.234Z,55.4
2018-06-12T23:27:05.678Z,55.8
2018-06-12T23:37:17.738Z,55.6
2018-06-12T23:47:32.098Z,55.3
2018-06-12T23:57:46.127Z,55.6
